Time;durP1;ratioP1;P1;durP2;ratioP2;P2;SDS_P1;SDS_P2;PMS_P1;PMS_P2;Temp;Humidity;BMP_temperature;BMP_pressure;BME280_temperature;BME280_humidity;BME280_pressure;Samples;Min_cycle;Max_cycle;Signal;HPM_P1;HPM_P2
2021/04/20 00:01:35;;;;;;;58.33;37.72;;;8.20;99.90;;;;;;5062763;28;20459;-68
2021/04/20 00:04:02;;;;;;;58.28;36.20;;;8.10;99.90;;;;;;5062557;28;20561;-68
2021/04/20 00:06:27;;;;;;;57.72;37.03;;;8.00;99.90;;;;;;5062263;28;20069;-68
2021/04/20 00:08:53;;;;;;;62.67;37.05;;;7.90;99.90;;;;;;5062758;28;20052;-68
2021/04/20 00:11:19;;;;;;;60.25;37.38;;;7.80;99.90;;;;;;5062331;28;20049;-68
2021/04/20 00:13:45;;;;;;;59.72;38.90;;;7.70;99.90;;;;;;5059547;28;20049;-68
2021/04/20 00:16:11;;;;;;;62.58;38.05;;;7.70;99.90;;;;;;5059930;28;20792;-68
2021/04/20 00:18:37;;;;;;;66.75;41.85;;;7.60;99.90;;;;;;5062293;28;20056;-69
2021/04/20 00:21:03;;;;;;;66.80;40.83;;;7.50;99.90;;;;;;5061986;28;20045;-69
2021/04/20 00:23:29;;;;;;;70.03;42.28;;;7.60;99.90;;;;;;5062607;28;20079;-69
2021/04/20 00:25:54;;;;;;;69.88;42.25;;;7.50;99.90;;;;;;5061789;28;20116;-69
2021/04/20 00:28:27;;;;;;;65.80;41.58;;;7.60;99.90;;;;;;5062713;28;20061;-69
2021/04/20 00:30:55;;;;;;;67.60;42.08;;;7.60;99.90;;;;;;5062270;28;20045;-69
2021/04/20 00:33:21;;;;;;;68.38;40.90;;;7.60;99.90;;;;;;5062338;28;20045;-69
2021/04/20 00:35:47;;;;;;;73.20;43.17;;;7.50;99.90;;;;;;5061845;28;20052;-68
2021/04/20 00:38:14;;;;;;;71.15;42.05;;;7.40;99.90;;;;;;5062593;28;20060;-68
2021/04/20 00:40:40;;;;;;;75.13;45.75;;;7.30;99.90;;;;;;5061944;28;20171;-68
2021/04/20 00:43:07;;;;;;;75.00;44.08;;;7.30;99.90;;;;;;5062321;28;20524;-68
2021/04/20 00:45:35;;;;;;;80.25;45.55;;;7.30;99.90;;;;;;5062064;28;20049;-68
2021/04/20 00:48:02;;;;;;;83.35;47.47;;;7.30;99.90;;;;;;5065343;28;20400;-69
2021/04/20 00:50:30;;;;;;;82.80;47.00;;;7.30;99.90;;;;;;5065930;28;20047;-69
2021/04/20 00:52:56;;;;;;;78.47;45.35;;;7.30;99.90;;;;;;5066091;28;20092;-69
2021/04/20 00:55:22;;;;;;;76.13;47.05;;;7.30;99.90;;;;;;5065695;28;20078;-69
2021/04/20 00:57:48;;;;;;;83.55;46.53;;;7.20;99.90;;;;;;5065849;28;20052;-68
2021/04/20 01:00:15;;;;;;;81.95;44.05;;;7.20;99.90;;;;;;5065534;28;20102;-69
2021/04/20 01:02:41;;;;;;;83.70;48.17;;;7.10;99.90;;;;;;5065486;28;20071;-69
2021/04/20 01:05:10;;;;;;;80.22;44.95;;;7.00;99.90;;;;;;5065220;28;20075;-68
2021/04/20 01:07:37;;;;;;;82.47;44.08;;;7.00;99.90;;;;;;5065648;28;20045;-68
2021/04/20 01:10:04;;;;;;;77.47;42.97;;;7.00;99.90;;;;;;5065088;28;20040;-68
2021/04/20 01:12:31;;;;;;;81.15;44.85;;;7.00;99.90;;;;;;5065571;28;20067;-68
2021/04/20 01:14:57;;;;;;;82.65;43.20;;;6.90;99.90;;;;;;5065089;28;20122;-69
2021/04/20 01:17:29;;;;;;;87.68;48.38;;;6.90;99.90;;;;;;5065461;28;20076;-68
2021/04/20 01:20:00;;;;;;;86.10;45.58;;;7.00;99.90;;;;;;5065379;28;20072;-68
2021/04/20 01:22:33;;;;;;;72.57;43.83;;;7.00;99.90;;;;;;5065519;28;20041;-69
2021/04/20 01:25:00;;;;;;;94.72;47.90;;;6.90;99.90;;;;;;5064462;28;20045;-68
2021/04/20 01:27:26;;;;;;;75.95;43.35;;;7.00;99.90;;;;;;5065165;28;20217;-69
2021/04/20 01:29:55;;;;;;;59.08;34.60;;;7.00;99.90;;;;;;5064662;28;20048;-68
2021/04/20 01:32:22;;;;;;;58.90;34.63;;;7.00;99.90;;;;;;5065252;28;20049;-68
2021/04/20 01:34:48;;;;;;;67.45;38.33;;;7.00;99.90;;;;;;5065087;28;20040;-69
2021/04/20 01:37:14;;;;;;;75.60;40.50;;;7.00;99.90;;;;;;5065123;28;20045;-69
2021/04/20 01:39:43;;;;;;;69.53;41.78;;;7.00;99.90;;;;;;5064552;28;20067;-69
2021/04/20 01:42:09;;;;;;;76.32;44.00;;;7.10;99.90;;;;;;5065376;28;20068;-68
2021/04/20 01:44:36;;;;;;;78.40;43.42;;;7.10;99.90;;;;;;5064655;28;20053;-69
2021/04/20 01:47:03;;;;;;;75.57;43.53;;;7.10;99.90;;;;;;5064657;28;20473;-68
2021/04/20 01:49:29;;;;;;;75.20;45.20;;;7.10;99.90;;;;;;5064950;28;20442;-69
2021/04/20 01:51:55;;;;;;;77.47;43.10;;;7.10;99.90;;;;;;5064803;28;20055;-68
2021/04/20 01:54:21;;;;;;;71.38;42.17;;;7.20;99.90;;;;;;5064101;28;20131;-68
2021/04/20 01:56:47;;;;;;;70.75;42.22;;;7.20;99.90;;;;;;5064753;28;20033;-69
2021/04/20 01:59:15;;;;;;;69.88;40.50;;;7.30;99.90;;;;;;5059777;28;20042;-68
2021/04/20 02:01:41;;;;;;;75.60;43.45;;;7.30;99.90;;;;;;5060173;28;20076;-68
2021/04/20 02:04:08;;;;;;;77.65;43.33;;;7.30;99.90;;;;;;5063333;28;20041;-68
2021/04/20 02:06:35;;;;;;;74.15;43.50;;;7.30;99.90;;;;;;5064147;28;20047;-68
2021/04/20 02:09:03;;;;;;;68.63;41.75;;;7.30;99.90;;;;;;5064281;28;20041;-68
2021/04/20 02:11:29;;;;;;;75.45;41.78;;;7.30;99.90;;;;;;5064635;28;20052;-68
2021/04/20 02:13:58;;;;;;;71.38;44.47;;;7.30;99.90;;;;;;5064541;28;20049;-69
2021/04/20 02:16:25;;;;;;;68.65;39.90;;;7.30;99.90;;;;;;5064412;28;20440;-68
2021/04/20 02:18:57;;;;;;;77.68;44.08;;;7.30;99.90;;;;;;5064580;28;20046;-68
2021/04/20 02:21:24;;;;;;;74.13;42.72;;;7.30;99.90;;;;;;5063373;28;20052;-69
2021/04/20 02:23:50;;;;;;;78.88;44.35;;;7.30;99.90;;;;;;5064443;28;20113;-68
2021/04/20 02:26:38;;;;;;;73.93;43.55;;;7.30;99.90;;;;;;5063289;28;20560;-68
2021/04/20 02:29:07;;;;;;;68.25;41.95;;;7.30;99.90;;;;;;5064216;28;20120;-68
2021/04/20 02:31:42;;;;;;;71.90;42.72;;;7.20;99.90;;;;;;5064083;28;20412;-68
2021/04/20 02:34:11;;;;;;;68.88;42.05;;;7.30;99.90;;;;;;5063540;28;20048;-68
2021/04/20 02:36:38;;;;;;;67.47;41.20;;;7.20;99.90;;;;;;5063789;28;20411;-68
2021/04/20 02:39:05;;;;;;;76.65;43.63;;;7.30;99.90;;;;;;5063479;28;20045;-68
2021/04/20 02:41:31;;;;;;;66.93;40.22;;;7.30;99.90;;;;;;5063465;28;20071;-67
2021/04/20 02:43:59;;;;;;;67.55;40.30;;;7.30;99.90;;;;;;5063851;28;20767;-68
2021/04/20 02:46:25;;;;;;;73.60;43.78;;;7.30;99.90;;;;;;5063937;28;20171;-69
2021/04/20 02:48:51;;;;;;;68.70;40.08;;;7.30;99.90;;;;;;5063557;28;20041;-67
2021/04/20 02:51:18;;;;;;;69.50;40.70;;;7.30;99.90;;;;;;5063649;28;20386;-68
2021/04/20 02:53:45;;;;;;;68.55;41.55;;;7.20;99.90;;;;;;5063193;28;20045;-68
2021/04/20 02:56:16;;;;;;;72.85;43.80;;;7.20;99.90;;;;;;5062890;28;20040;-68
2021/04/20 02:58:43;;;;;;;75.95;43.97;;;7.30;99.90;;;;;;5063708;28;20340;-68
2021/04/20 03:01:17;;;;;;;75.50;43.10;;;7.20;99.90;;;;;;5063433;28;20088;-69
2021/04/20 03:03:47;;;;;;;75.13;44.15;;;7.20;99.90;;;;;;5063537;28;20052;-68
2021/04/20 03:06:14;;;;;;;76.85;44.80;;;7.20;99.90;;;;;;5062972;28;20047;-69
2021/04/20 03:08:42;;;;;;;72.43;43.65;;;7.20;99.90;;;;;;5062891;28;20052;-68
2021/04/20 03:11:14;;;;;;;74.38;44.50;;;7.20;99.90;;;;;;5062342;28;20246;-68
2021/04/20 03:13:44;;;;;;;71.60;43.65;;;7.30;99.90;;;;;;5063880;28;20049;-68
2021/04/20 03:16:13;;;;;;;80.85;45.95;;;7.30;99.90;;;;;;5063154;28;20061;-69
2021/04/20 03:18:39;;;;;;;76.30;45.58;;;7.30;99.90;;;;;;5063519;28;20048;-68
2021/04/20 03:21:09;;;;;;;71.40;42.58;;;7.40;99.90;;;;;;5062918;28;20051;-68
2021/04/20 03:23:36;;;;;;;70.95;42.70;;;7.40;99.90;;;;;;5063414;28;20047;-69
2021/04/20 03:26:06;;;;;;;76.90;43.38;;;7.40;99.90;;;;;;5062456;28;20055;-68
2021/04/20 03:28:32;;;;;;;67.47;40.95;;;7.40;99.90;;;;;;5063221;28;20119;-68
2021/04/20 03:30:59;;;;;;;74.57;42.17;;;7.30;99.90;;;;;;5063021;28;20036;-68
2021/04/20 03:33:31;;;;;;;75.25;44.65;;;7.40;99.90;;;;;;5059297;28;20048;-68
2021/04/20 03:36:01;;;;;;;78.47;45.50;;;7.40;99.90;;;;;;5062699;28;20041;-69
2021/04/20 03:38:49;;;;;;;76.47;45.92;;;7.40;99.90;;;;;;5062545;28;20106;-68
2021/04/20 03:41:27;;;;;;;80.10;45.40;;;7.40;99.90;;;;;;5060384;28;20092;-69
2021/04/20 03:43:57;;;;;;;76.60;44.38;;;7.40;99.90;;;;;;5062927;28;20051;-68
2021/04/20 03:46:28;;;;;;;73.55;43.10;;;7.30;99.90;;;;;;5063071;28;20049;-69
2021/04/20 03:49:03;;;;;;;77.97;44.35;;;7.30;99.90;;;;;;5063082;28;20096;-69
2021/04/20 03:51:31;;;;;;;81.95;46.00;;;7.20;99.90;;;;;;5062624;28;20128;-68
2021/04/20 03:54:06;;;;;;;78.65;44.83;;;7.10;99.90;;;;;;5062903;28;20400;-68
2021/04/20 03:56:33;;;;;;;79.55;45.85;;;7.20;99.90;;;;;;5062407;28;20076;-68
2021/04/20 03:59:05;;;;;;;78.68;45.72;;;7.00;99.90;;;;;;5062500;28;20479;-68
2021/04/20 04:01:37;;;;;;;83.10;47.85;;;6.90;99.90;;;;;;5063327;28;20045;-68
2021/04/20 04:04:07;;;;;;;78.55;48.08;;;6.80;99.90;;;;;;5060467;28;20075;-68
2021/04/20 04:06:35;;;;;;;94.45;49.65;;;6.80;99.90;;;;;;5062654;28;20488;-68
2021/04/20 04:09:02;;;;;;;88.32;51.78;;;6.70;99.90;;;;;;5062246;28;20037;-68
2021/04/20 04:11:32;;;;;;;101.72;52.60;;;6.70;99.90;;;;;;5062479;28;20043;-69
2021/04/20 04:14:01;;;;;;;105.60;55.38;;;6.60;99.90;;;;;;5062597;28;20056;-68
2021/04/20 04:16:29;;;;;;;108.57;55.17;;;6.50;99.90;;;;;;5058154;28;20044;-68
2021/04/20 04:18:56;;;;;;;105.40;56.38;;;6.40;99.90;;;;;;5062494;28;20041;-68
2021/04/20 04:21:27;;;;;;;107.77;56.67;;;6.40;99.90;;;;;;5064621;28;20067;-68
2021/04/20 04:23:56;;;;;;;107.82;56.80;;;6.40;99.90;;;;;;5066071;28;20045;-68
2021/04/20 04:26:27;;;;;;;117.70;59.95;;;6.40;99.90;;;;;;5065404;28;20120;-68
2021/04/20 04:28:57;;;;;;;120.38;60.88;;;6.40;99.90;;;;;;5066657;28;20132;-69
2021/04/20 04:31:24;;;;;;;105.88;56.40;;;6.30;99.90;;;;;;5066169;28;20047;-69
2021/04/20 04:33:51;;;;;;;114.35;60.05;;;6.30;99.90;;;;;;5066438;28;20058;-69
2021/04/20 04:36:18;;;;;;;113.77;59.10;;;6.20;99.90;;;;;;5066012;28;20049;-68
2021/04/20 04:38:45;;;;;;;111.88;61.80;;;6.20;99.90;;;;;;5065956;28;20322;-69
2021/04/20 04:41:12;;;;;;;120.47;63.78;;;6.10;99.90;;;;;;5065688;28;20040;-69
2021/04/20 04:43:40;;;;;;;120.55;63.05;;;6.10;99.90;;;;;;5065491;28;20075;-69
2021/04/20 04:46:06;;;;;;;119.95;60.20;;;6.00;99.90;;;;;;5066257;28;20402;-70
2021/04/20 04:48:34;;;;;;;125.10;65.18;;;6.00;99.90;;;;;;5065994;28;20037;-69
2021/04/20 04:51:01;;;;;;;128.32;66.68;;;6.00;99.90;;;;;;5065826;28;20047;-69
2021/04/20 04:53:28;;;;;;;143.30;66.43;;;6.00;99.90;;;;;;5065396;28;20037;-68
2021/04/20 04:55:56;;;;;;;136.15;68.55;;;5.90;99.90;;;;;;5065223;28;20033;-69
2021/04/20 04:58:26;;;;;;;118.57;62.67;;;5.90;99.90;;;;;;5065321;28;20072;-68
2021/04/20 05:00:59;;;;;;;107.43;58.83;;;5.90;99.90;;;;;;5065845;28;20043;-68
2021/04/20 05:03:26;;;;;;;134.25;66.43;;;5.90;99.90;;;;;;5065887;28;20158;-69
2021/04/20 05:05:56;;;;;;;120.93;65.35;;;6.00;99.90;;;;;;5065166;28;20052;-68
2021/04/20 05:08:22;;;;;;;115.82;64.13;;;6.00;99.90;;;;;;5065957;28;20048;-68
2021/04/20 05:10:52;;;;;;;110.97;63.22;;;6.10;99.90;;;;;;5064918;28;20057;-68
2021/04/20 05:13:18;;;;;;;112.20;61.35;;;6.20;99.90;;;;;;5065238;28;20125;-69
2021/04/20 05:15:45;;;;;;;98.30;57.00;;;6.20;99.90;;;;;;5065262;28;20048;-69
2021/04/20 05:18:12;;;;;;;122.80;62.78;;;6.20;99.90;;;;;;5065082;28;20543;-69
2021/04/20 05:20:45;;;;;;;108.25;61.47;;;6.30;99.90;;;;;;5065438;28;20041;-68
2021/04/20 05:23:15;;;;;;;81.75;50.03;;;6.20;99.90;;;;;;5065662;28;20049;-69
2021/04/20 05:25:41;;;;;;;79.38;51.05;;;6.40;99.90;;;;;;5065190;28;20045;-69
2021/04/20 05:28:07;;;;;;;73.60;46.88;;;6.40;99.90;;;;;;5064742;28;20053;-69
2021/04/20 05:30:34;;;;;;;79.03;47.53;;;6.50;99.90;;;;;;5064793;28;20044;-68
2021/04/20 05:33:00;;;;;;;70.05;44.35;;;6.60;99.90;;;;;;5065259;28;20041;-69
2021/04/20 05:35:27;;;;;;;75.90;45.80;;;6.60;99.90;;;;;;5064909;28;20049;-69
2021/04/20 05:37:53;;;;;;;67.45;43.95;;;6.70;99.90;;;;;;5064437;28;20045;-69
2021/04/20 05:40:21;;;;;;;72.22;45.13;;;6.70;99.90;;;;;;5056060;28;20485;-69
2021/04/20 05:42:47;;;;;;;65.97;42.50;;;6.80;99.90;;;;;;5053863;28;20055;-68
2021/04/20 05:45:14;;;;;;;67.63;41.85;;;6.80;99.90;;;;;;5062444;28;20067;-69
2021/04/20 05:47:42;;;;;;;60.20;39.70;;;6.80;99.90;;;;;;5059712;28;20052;-69
2021/04/20 05:50:10;;;;;;;;;;;7.00;99.90;;;;;;5074102;28;20397;-68
2021/04/20 05:52:37;;;;;;;57.78;37.83;;;7.20;99.90;;;;;;5081322;28;19924;-69
2021/04/20 05:55:05;;;;;;;54.35;36.90;;;7.20;99.90;;;;;;5065771;28;20098;-68
2021/04/20 05:57:32;;;;;;;56.70;35.10;;;7.30;99.90;;;;;;5066662;28;20045;-68
2021/04/20 05:59:59;;;;;;;47.72;32.67;;;7.40;99.90;;;;;;5064905;28;20516;-69
2021/04/20 06:02:31;;;;;;;52.65;32.88;;;7.50;99.90;;;;;;5075448;28;20071;-68
2021/04/20 06:05:00;;;;;;;52.38;33.78;;;7.60;99.90;;;;;;5071822;28;20055;-69
2021/04/20 06:07:26;;;;;;;52.45;31.77;;;7.60;99.90;;;;;;5063487;28;20041;-69
2021/04/20 06:09:52;;;;;;;38.78;25.77;;;7.70;99.90;;;;;;5073010;28;20127;-69
2021/04/20 06:12:18;;;;;;;38.55;24.92;;;7.90;99.90;;;;;;5064537;28;20135;-70
2021/04/20 06:14:48;;;;;;;37.78;26.98;;;8.20;99.90;;;;;;5064332;28;20037;-70
2021/04/20 06:17:15;;;;;;;40.63;26.02;;;8.20;99.90;;;;;;5064113;28;20590;-69
2021/04/20 06:19:41;;;;;;;39.75;25.42;;;8.40;99.90;;;;;;5062740;28;20059;-70
2021/04/20 06:22:11;;;;;;;35.17;22.27;;;8.50;99.90;;;;;;5064073;28;20048;-69
2021/04/20 06:24:39;;;;;;;32.03;20.77;;;8.60;99.90;;;;;;5063802;28;20045;-69
2021/04/20 06:27:06;;;;;;;29.95;19.27;;;8.80;99.90;;;;;;5057048;28;20049;-69
2021/04/20 06:29:31;;;;;;;30.45;18.88;;;8.80;99.90;;;;;;5059901;28;20045;-69
2021/04/20 06:31:58;;;;;;;29.27;18.70;;;9.00;99.90;;;;;;5064112;28;20037;-70
2021/04/20 06:34:25;;;;;;;25.25;17.83;;;9.00;99.90;;;;;;5063265;28;20045;-69
2021/04/20 06:36:52;;;;;;;28.02;19.13;;;9.00;99.90;;;;;;5064312;28;20049;-71
2021/04/20 06:39:22;;;;;;;29.42;16.90;;;9.10;99.90;;;;;;5063766;28;20115;-68
2021/04/20 06:41:52;;;;;;;25.33;16.55;;;9.20;99.90;;;;;;5063438;28;20045;-69
2021/04/20 06:44:38;;;;;;;25.85;14.93;;;9.30;99.90;;;;;;5061916;28;20037;-69
2021/04/20 06:47:30;;;;;;;24.35;15.85;;;9.40;99.90;;;;;;5047135;28;20095;-69
2021/04/20 06:50:04;;;;;;;19.30;14.18;;;9.40;99.90;;;;;;5062572;28;20079;-70
2021/04/20 06:52:37;;;;;;;19.27;13.20;;;9.50;99.90;;;;;;5063435;28;20096;-71
2021/04/20 06:55:08;;;;;;;23.33;14.10;;;9.60;99.90;;;;;;5073167;28;20075;-69
2021/04/20 06:57:44;;;;;;;18.40;13.13;;;9.60;99.90;;;;;;5063624;28;20057;-70
2021/04/20 07:00:24;;;;;;;17.33;12.02;;;9.70;99.90;;;;;;5062855;28;20056;-69
2021/04/20 07:03:07;;;;;;;20.48;11.93;;;9.90;99.90;;;;;;5063532;28;20100;-70
2021/04/20 07:05:42;;;;;;;20.75;11.95;;;10.00;99.90;;;;;;5063037;28;20040;-70
2021/04/20 07:08:44;;;;;;;19.75;12.65;;;10.00;99.90;;;;;;5062923;28;20119;-69
2021/04/20 07:11:14;;;;;;;17.65;11.85;;;10.00;99.90;;;;;;5057209;28;20045;-70
2021/04/20 07:13:47;;;;;;;16.52;11.55;;;10.10;99.90;;;;;;5059355;28;20043;-67
2021/04/20 07:16:33;;;;;;;15.68;11.80;;;10.20;99.90;;;;;;5067892;28;20124;-68
2021/04/20 07:19:03;;;;;;;19.65;12.15;;;10.40;99.90;;;;;;5060448;28;20100;-66
2021/04/20 07:21:54;;;;;;;25.60;12.27;;;10.40;99.90;;;;;;5061765;28;20052;-67
2021/04/20 07:24:25;;;;;;;15.18;10.98;;;10.70;99.90;;;;;;5057623;28;20511;-67
2021/04/20 07:27:09;;;;;;;18.48;12.00;;;10.70;99.90;;;;;;5060866;28;20060;-67
2021/04/20 07:29:47;;;;;;;18.90;12.65;;;10.70;99.90;;;;;;5061224;28;20045;-66
2021/04/20 07:33:06;;;;;;;19.50;12.20;;;10.80;99.90;;;;;;5065904;28;20087;-67
2021/04/20 07:35:56;;;;;;;21.95;11.50;;;10.90;99.90;;;;;;5063848;28;20041;-67
2021/04/20 07:39:09;;;;;;;16.27;10.88;;;11.20;99.90;;;;;;5063022;28;20065;-67
2021/04/20 07:41:45;;;;;;;17.80;10.73;;;11.30;99.90;;;;;;4997772;28;20461;-67
2021/04/20 07:44:33;;;;;;;16.88;10.43;;;11.60;99.90;;;;;;4998422;28;20062;-66
2021/04/20 07:47:08;;;;;;;13.23;9.73;;;11.50;99.90;;;;;;4999818;28;20046;-67
2021/04/20 07:49:45;;;;;;;14.95;9.77;;;12.10;99.90;;;;;;4995545;28;20066;-67
2021/04/20 07:52:28;;;;;;;15.63;9.90;;;12.00;97.60;;;;;;5000023;28;20081;-67
2021/04/20 07:55:51;;;;;;;15.63;9.85;;;12.10;98.20;;;;;;4994994;28;20191;-68
2021/04/20 07:58:21;;;;;;;13.20;9.30;;;11.80;96.50;;;;;;4940927;29;20171;-67
2021/04/20 08:00:53;;;;;;;15.10;10.48;;;12.10;97.40;;;;;;4945025;29;20055;-67
2021/04/20 08:03:42;;;;;;;15.73;9.73;;;12.20;96.10;;;;;;4944122;29;20078;-69
2021/04/20 08:06:28;;;;;;;16.70;10.30;;;12.60;96.40;;;;;;4944711;29;20047;-65
2021/04/20 08:09:01;;;;;;;13.35;9.02;;;12.50;95.10;;;;;;4942692;29;20091;-67
2021/04/20 08:11:41;;;;;;;12.68;8.90;;;12.60;94.90;;;;;;4944003;29;20051;-67
2021/04/20 08:14:23;;;;;;;15.63;9.93;;;12.70;94.70;;;;;;4942085;29;20073;-69
2021/04/20 08:16:51;;;;;;;14.68;9.80;;;12.60;95.00;;;;;;4997294;28;20043;-65
2021/04/20 08:19:31;;;;;;;;;;;13.00;94.60;;;;;;5002265;28;20484;-67
2021/04/20 08:21:58;;;;;;;12.95;9.60;;;13.20;94.90;;;;;;5001362;28;20433;-69
2021/04/20 08:24:31;;;;;;;30.83;10.80;;;13.30;93.60;;;;;;5002808;28;20070;-67
2021/04/20 08:27:07;;;;;;;13.48;9.77;;;12.90;93.80;;;;;;4998965;28;20572;-66
2021/04/20 08:29:35;;;;;;;17.70;10.60;;;13.20;94.40;;;;;;5002841;28;20054;-69
2021/04/20 08:32:09;;;;;;;14.57;8.82;;;13.50;94.90;;;;;;4999391;28;20042;-69
2021/04/20 08:34:41;;;;;;;14.27;9.60;;;13.70;95.10;;;;;;5063433;28;20057;-69
2021/04/20 08:37:42;;;;;;;15.52;8.85;;;13.90;94.80;;;;;;5067491;28;20041;-65
2021/04/20 08:40:19;;;;;;;12.32;8.50;;;13.90;92.60;;;;;;5066612;28;20044;-64
2021/04/20 08:43:02;;;;;;;13.57;9.07;;;13.90;91.90;;;;;;5060580;28;20037;-67
2021/04/20 08:45:56;;;;;;;12.40;8.02;;;14.10;91.90;;;;;;5063749;28;20139;-75
2021/04/20 08:48:59;;;;;;;13.45;8.95;;;13.90;90.30;;;;;;5064033;28;20072;-64
2021/04/20 08:51:33;;;;;;;13.32;7.95;;;14.20;90.60;;;;;;5068458;28;20041;-69
2021/04/20 08:54:29;;;;;;;10.98;7.45;;;14.10;84.20;;;;;;5063124;28;20048;-67
2021/04/20 08:57:16;;;;;;;14.27;7.75;;;14.20;82.00;;;;;;5065691;28;20060;-66
2021/04/20 09:00:10;;;;;;;17.80;8.38;;;14.20;78.50;;;;;;5061268;28;20298;-66
2021/04/20 09:03:00;;;;;;;12.13;8.13;;;14.10;81.50;;;;;;5068373;28;20144;-67
2021/04/20 09:05:31;;;;;;;15.45;8.20;;;14.00;81.80;;;;;;5063831;28;20428;-66
2021/04/20 09:08:09;;;;;;;11.77;7.97;;;14.20;86.60;;;;;;5061199;28;20044;-65
2021/04/20 09:10:50;;;;;;;13.10;8.52;;;14.20;79.90;;;;;;5064979;28;20101;-66
2021/04/20 09:13:21;;;;;;;13.77;7.97;;;14.30;83.60;;;;;;5065261;28;20052;-64
2021/04/20 09:15:55;;;;;;;12.98;8.25;;;14.40;84.90;;;;;;5064748;28;20037;-65
2021/04/20 09:18:29;;;;;;;13.52;6.88;;;14.50;81.70;;;;;;5063431;28;20036;-65
2021/04/20 09:21:09;;;;;;;13.93;7.47;;;14.50;79.30;;;;;;5060956;28;20296;-65
2021/04/20 09:23:53;;;;;;;10.55;6.97;;;14.60;81.20;;;;;;5065055;28;20047;-70
2021/04/20 09:26:45;;;;;;;16.17;8.75;;;14.70;79.20;;;;;;5064771;28;20124;-70
2021/04/20 09:29:29;;;;;;;12.52;7.40;;;14.60;76.80;;;;;;5063456;28;20055;-68
2021/04/20 09:32:01;;;;;;;14.32;8.57;;;14.50;78.30;;;;;;5064228;28;20033;-70
2021/04/20 09:34:40;;;;;;;14.48;8.18;;;14.40;77.20;;;;;;5067169;28;20045;-70
2021/04/20 09:37:06;;;;;;;;;;;14.30;78.80;;;;;;5063520;28;20044;-64
2021/04/20 09:39:40;;;;;;;12.02;7.80;;;14.70;80.90;;;;;;5067397;28;19964;-68
2021/04/20 09:42:08;;;;;;;17.73;8.18;;;14.70;78.80;;;;;;5065114;28;20072;-64
2021/04/20 09:44:44;;;;;;;13.93;7.72;;;14.80;76.80;;;;;;5066833;28;20041;-64
2021/04/20 09:47:28;;;;;;;10.77;7.13;;;15.00;76.00;;;;;;5060235;28;20128;-66
2021/04/20 09:49:59;;;;;;;14.65;7.85;;;15.10;76.80;;;;;;5061365;28;20043;-67
2021/04/20 09:52:39;;;;;;;19.23;8.00;;;15.10;74.50;;;;;;5060187;28;20052;-67
2021/04/20 09:55:13;;;;;;;12.27;7.78;;;15.30;74.90;;;;;;5058851;28;21173;-67
2021/04/20 09:57:45;;;;;;;18.13;8.32;;;15.30;77.90;;;;;;5060718;28;20051;-66
2021/04/20 10:00:13;;;;;;;13.75;7.30;;;15.30;72.10;;;;;;5060666;28;20048;-66
2021/04/20 10:03:07;;;;;;;15.32;8.55;;;15.10;73.90;;;;;;5066664;28;20145;-67
2021/04/20 10:05:50;;;;;;;18.95;7.45;;;15.10;73.60;;;;;;5065963;28;20045;-69
2021/04/20 10:08:44;;;;;;;13.25;8.07;;;15.20;75.60;;;;;;5061208;28;20064;-67
2021/04/20 10:11:31;;;;;;;11.93;7.55;;;15.20;73.70;;;;;;5054459;28;20120;-73
2021/04/20 10:14:12;;;;;;;18.55;8.35;;;15.00;71.60;;;;;;5062341;28;20133;-67
2021/04/20 10:16:56;;;;;;;11.43;6.93;;;15.20;75.10;;;;;;5058870;28;20055;-66
2021/04/20 10:19:36;;;;;;;12.60;7.32;;;15.30;73.40;;;;;;5065639;28;20045;-74
2021/04/20 10:22:11;;;;;;;18.23;7.78;;;15.40;71.70;;;;;;5065346;28;20442;-73
2021/04/20 10:24:43;;;;;;;11.85;7.57;;;15.50;72.90;;;;;;5064122;28;20044;-71
2021/04/20 10:27:14;;;;;;;10.20;6.50;;;15.80;70.20;;;;;;5063194;28;20112;-70
2021/04/20 10:30:02;;;;;;;12.15;6.68;;;15.90;69.40;;;;;;5060317;28;20052;-69
2021/04/20 10:32:34;;;;;;;13.95;7.22;;;16.00;71.60;;;;;;5072221;28;20056;-68
2021/04/20 10:35:02;;;;;;;13.10;6.03;;;16.00;62.50;;;;;;5066567;28;20269;-65
2021/04/20 10:37:37;;;;;;;11.65;7.15;;;15.80;65.40;;;;;;5060814;28;20064;-66
2021/04/20 10:40:09;;;;;;;11.95;7.00;;;16.10;63.90;;;;;;5060563;28;20183;-68
2021/04/20 10:42:37;;;;;;;16.50;8.00;;;15.70;62.00;;;;;;5056456;28;20048;-68
2021/04/20 10:45:06;;;;;;;18.33;6.15;;;15.80;63.80;;;;;;5058691;28;20048;-68
2021/04/20 10:47:34;;;;;;;8.20;5.82;;;16.30;62.80;;;;;;5055502;28;20115;-67
2021/04/20 10:50:00;;;;;;;15.45;6.50;;;16.30;64.50;;;;;;5060288;28;20037;-67
2021/04/20 10:52:31;;;;;;;13.52;6.80;;;16.30;59.10;;;;;;5062057;28;20053;-67
2021/04/20 10:55:08;;;;;;;13.45;6.65;;;16.30;61.50;;;;;;5061267;28;20051;-68
2021/04/20 10:57:44;;;;;;;16.42;5.90;;;16.30;62.00;;;;;;5062130;28;20048;-67
2021/04/20 11:00:13;;;;;;;11.70;6.97;;;16.50;58.00;;;;;;5061839;28;20044;-67
2021/04/20 11:02:52;;;;;;;10.20;6.13;;;16.60;57.80;;;;;;5059879;28;20056;-67
2021/04/20 11:05:21;;;;;;;11.20;6.57;;;16.50;59.20;;;;;;5056473;28;20189;-69
2021/04/20 11:07:47;;;;;;;7.18;5.63;;;16.60;58.70;;;;;;5061535;28;20049;-69
2021/04/20 11:10:15;;;;;;;8.35;5.60;;;16.90;57.60;;;;;;5061969;28;20049;-69
2021/04/20 11:12:49;;;;;;;10.27;6.05;;;16.90;53.40;;;;;;5060313;28;20045;-67
2021/04/20 11:15:14;;;;;;;12.00;6.03;;;16.70;52.20;;;;;;5061514;28;20049;-68
2021/04/20 11:17:55;;;;;;;12.63;6.00;;;17.30;52.30;;;;;;5064461;28;20055;-68
2021/04/20 11:20:49;;;;;;;11.38;5.38;;;17.10;49.80;;;;;;5059671;28;20100;-67
2021/04/20 11:23:22;;;;;;;9.52;4.65;;;17.20;50.50;;;;;;5061986;28;20079;-69
2021/04/20 11:25:52;;;;;;;9.07;4.93;;;17.10;46.50;;;;;;5062549;28;20045;-68
2021/04/20 11:28:46;;;;;;;10.18;4.88;;;16.90;47.20;;;;;;5062111;28;20064;-67
2021/04/20 11:31:37;;;;;;;11.15;4.43;;;17.00;47.80;;;;;;5062040;28;20056;-67
2021/04/20 11:34:20;;;;;;;9.20;4.28;;;17.50;47.20;;;;;;5050915;28;20088;-65
2021/04/20 11:36:51;;;;;;;7.18;4.45;;;17.30;46.00;;;;;;5059433;28;20045;-68
2021/04/20 11:39:25;;;;;;;12.68;5.20;;;17.50;46.30;;;;;;5051953;28;20068;-67
2021/04/20 11:42:06;;;;;;;8.40;4.72;;;18.50;44.90;;;;;;5061938;28;20140;-67
2021/04/20 11:44:39;;;;;;;5.97;3.95;;;19.20;43.40;;;;;;5062131;28;20071;-68
2021/04/20 11:47:08;;;;;;;8.60;4.63;;;18.60;42.90;;;;;;5064102;28;20109;-67
2021/04/20 11:50:03;;;;;;;7.97;4.15;;;18.80;43.30;;;;;;5062850;28;20498;-67
2021/04/20 11:52:32;;;;;;;9.30;3.67;;;18.70;40.00;;;;;;5062463;28;20056;-67
2021/04/20 11:55:18;;;;;;;5.57;3.70;;;18.40;41.30;;;;;;5060001;28;20446;-68
2021/04/20 11:57:45;;;;;;;6.22;3.38;;;19.20;41.30;;;;;;5054842;28;20475;-67
2021/04/20 12:00:12;;;;;;;6.40;3.50;;;20.00;40.90;;;;;;5062402;28;20045;-67
2021/04/20 12:02:40;;;;;;;4.25;2.60;;;20.60;38.90;;;;;;5061726;28;20068;-67
2021/04/20 12:05:09;;;;;;;6.60;2.78;;;20.10;33.80;;;;;;5061943;28;20091;-66
2021/04/20 12:07:36;;;;;;;4.20;2.15;;;19.90;37.00;;;;;;5066306;28;20040;-67
2021/04/20 12:10:04;;;;;;;6.90;3.13;;;19.30;35.80;;;;;;5058884;28;20037;-67
2021/04/20 12:12:34;;;;;;;6.65;2.90;;;19.00;36.70;;;;;;5061368;28;20064;-67
2021/04/20 12:15:02;;;;;;;8.02;2.55;;;19.60;36.60;;;;;;5070631;28;20068;-68
2021/04/20 12:17:31;;;;;;;6.28;2.60;;;19.70;36.50;;;;;;5072012;28;20051;-69
2021/04/20 12:19:59;;;;;;;8.70;2.83;;;19.30;35.00;;;;;;5049912;28;20120;-68
2021/04/20 12:22:27;;;;;;;3.92;2.50;;;19.80;36.20;;;;;;5062860;28;20474;-68
2021/04/20 12:24:54;;;;;;;5.07;2.80;;;19.90;35.10;;;;;;5062000;28;20052;-67
2021/04/20 12:27:29;;;;;;;5.55;3.15;;;20.30;35.20;;;;;;5054634;28;20048;-68
2021/04/20 12:29:56;;;;;;;4.72;2.35;;;19.70;35.20;;;;;;5063006;28;20056;-68
2021/04/20 12:32:25;;;;;;;3.67;2.28;;;20.20;33.30;;;;;;5062684;28;20097;-67
2021/04/20 12:34:58;;;;;;;4.00;2.50;;;20.20;33.40;;;;;;5062363;28;20120;-67
2021/04/20 12:37:28;;;;;;;7.57;3.08;;;20.60;35.20;;;;;;5062839;28;20056;-67
2021/04/20 12:40:01;;;;;;;5.28;2.58;;;21.00;35.60;;;;;;5060763;28;20252;-68
2021/04/20 12:42:38;;;;;;;6.00;2.28;;;20.30;34.60;;;;;;5062602;28;20495;-67
2021/04/20 12:45:10;;;;;;;3.22;1.92;;;20.10;33.90;;;;;;5065431;28;20048;-67
2021/04/20 12:47:39;;;;;;;5.05;2.33;;;19.90;33.90;;;;;;5064860;28;20855;-67
2021/04/20 12:50:08;;;;;;;6.85;2.78;;;20.40;34.00;;;;;;5065394;28;20048;-67
2021/04/20 12:52:35;;;;;;;5.20;2.80;;;20.80;35.90;;;;;;5054300;28;20049;-67
2021/04/20 12:55:12;;;;;;;6.60;2.58;;;21.70;34.60;;;;;;5063572;28;20135;-67
2021/04/20 12:57:43;;;;;;;6.07;3.00;;;21.90;33.00;;;;;;5057438;28;20071;-67
2021/04/20 13:00:11;;;;;;;4.05;2.00;;;21.30;31.50;;;;;;5062027;28;20075;-67
2021/04/20 13:02:43;;;;;;;5.10;2.03;;;20.40;31.50;;;;;;5059462;28;20400;-68
2021/04/20 13:05:10;;;;;;;4.28;2.30;;;20.70;34.10;;;;;;5067537;28;20051;-67